createdAt,value
2018-06-03T00:00:34.791Z,24.75
2018-06-03T00:01:34.850Z,24.18
2018-06-03T00:03:27.849Z,24.08
2018-06-03T00:04:27.910Z,23.69
2018-06-03T00:06:20.899Z,23.21
2018-06-03T00:07:20.967Z,23.88
2018-06-03T00:09:13.968Z,24.37
2018-06-03T00:10:14.024Z,24.46
2018-06-03T00:12:07.013Z,24.08
2018-06-03T00:13:07.079Z,24.18
2018-06-03T00:15:00.076Z,24.75
2018-06-03T00:16:00.135Z,24.65
2018-06-03T00:17:53.133Z,24.18
2018-06-03T00:18:53.198Z,24.18
2018-06-03T00:20:46.199Z,24.37
2018-06-03T00:21:46.253Z,23.88
2018-06-03T00:23:39.252Z,24.19
2018-06-03T00:24:39.312Z,23.80
2018-06-03T00:26:32.304Z,23.50
2018-06-03T00:27:32.368Z,23.71
2018-06-03T00:29:25.385Z,24.19
2018-06-03T00:30:25.424Z,23.90
2018-06-03T00:32:18.925Z,24.38
2018-06-03T00:33:18.988Z,24.28
2018-06-03T00:35:11.996Z,24.57
2018-06-03T00:36:12.054Z,24.48
2018-06-03T00:38:05.045Z,24.19
2018-06-03T00:39:05.109Z,24.19
2018-06-03T00:40:58.107Z,24.48
2018-06-03T00:41:58.164Z,24.28
2018-06-03T00:43:51.166Z,24.19
2018-06-03T00:44:51.221Z,24.19
2018-06-03T00:46:44.217Z,24.19
2018-06-03T00:47:44.278Z,23.90
2018-06-03T00:49:37.278Z,23.80
2018-06-03T00:50:37.335Z,23.42
2018-06-03T00:52:30.327Z,23.13
2018-06-03T00:53:30.391Z,23.42
2018-06-03T00:55:23.396Z,24.19
2018-06-03T00:56:23.452Z,23.42
2018-06-03T00:58:16.446Z,23.80
2018-06-03T00:59:16.508Z,23.99
2018-06-03T01:01:09.509Z,24.76
2018-06-03T01:02:09.563Z,24.66
2018-06-03T01:04:02.566Z,24.86
2018-06-03T01:05:02.621Z,24.86
2018-06-03T01:06:55.615Z,24.76
2018-06-03T01:07:55.678Z,24.76
2018-06-03T01:09:48.683Z,24.95
2018-06-03T01:10:48.735Z,24.76
2018-06-03T01:12:41.727Z,25.05
2018-06-03T01:13:41.791Z,24.66
2018-06-03T01:15:34.792Z,24.86
2018-06-03T01:16:34.850Z,24.76
2018-06-03T01:18:28.352Z,24.76
2018-06-03T01:19:28.412Z,25.24
2018-06-03T01:21:21.411Z,25.05
2018-06-03T01:22:21.472Z,25.34
2018-06-03T01:24:14.469Z,25.15
2018-06-03T01:25:14.525Z,25.24
2018-06-03T01:27:07.522Z,25.24
2018-06-03T01:28:07.585Z,25.62
2018-06-03T01:30:00.591Z,25.43
2018-06-03T01:31:00.648Z,25.15
2018-06-03T01:32:53.641Z,25.53
2018-06-03T01:33:53.706Z,25.82
2018-06-03T01:35:46.707Z,25.72
2018-06-03T01:36:46.762Z,25.82
2018-06-03T01:38:39.761Z,25.72
2018-06-03T01:39:39.824Z,26.01
2018-06-03T01:41:32.822Z,26.01
2018-06-03T01:42:32.884Z,25.62
2018-06-03T01:44:25.878Z,26.10
2018-06-03T01:45:25.937Z,26.10
2018-06-03T01:47:18.931Z,26.20
2018-06-03T01:48:18.993Z,26.10
2018-06-03T01:50:11.991Z,26.10
2018-06-03T01:51:12.049Z,25.82
2018-06-03T01:53:05.041Z,25.82
2018-06-03T01:54:05.110Z,25.92
2018-06-03T01:55:58.104Z,26.20
2018-06-03T01:56:58.162Z,26.10
2018-06-03T01:58:51.154Z,25.72
2018-06-03T01:59:51.215Z,25.92
2018-06-03T02:01:44.734Z,25.82
2018-06-03T02:02:44.791Z,25.92
2018-06-03T02:04:37.791Z,26.20
2018-06-03T02:05:37.847Z,25.90
2018-06-03T02:07:30.840Z,25.99
2018-06-03T02:08:30.908Z,26.01
2018-06-03T02:10:23.911Z,26.01
2018-06-03T02:11:23.962Z,25.92
2018-06-03T02:13:16.959Z,26.20
2018-06-03T02:14:17.021Z,26.30
2018-06-03T02:16:10.025Z,25.92
2018-06-03T02:17:10.082Z,26.20
2018-06-03T02:19:03.073Z,25.92
2018-06-03T02:20:03.139Z,25.92
2018-06-03T02:21:56.136Z,25.92
2018-06-03T02:22:56.194Z,26.20
2018-06-03T02:24:49.704Z,26.01
2018-06-03T02:25:49.766Z,26.20
2018-06-03T02:27:42.751Z,26.01
2018-06-03T02:28:42.812Z,26.01
2018-06-03T02:30:35.818Z,26.01
2018-06-03T02:31:35.870Z,26.10
2018-06-03T02:33:28.873Z,26.39
2018-06-03T02:34:28.940Z,26.01
2018-06-03T02:36:21.938Z,26.20
2018-06-03T02:37:21.990Z,26.20
2018-06-03T02:39:14.981Z,25.82
2018-06-03T02:40:15.047Z,26.20
2018-06-03T02:42:08.055Z,26.10
2018-06-03T02:43:08.112Z,26.01
2018-06-03T02:45:01.113Z,25.92
2018-06-03T02:46:01.165Z,25.92
2018-06-03T02:47:54.158Z,26.10
2018-06-03T02:48:54.237Z,26.20
2018-06-03T02:50:47.221Z,26.01
2018-06-03T02:51:47.277Z,26.20
2018-06-03T02:53:40.273Z,26.20
2018-06-03T02:54:40.334Z,26.01
2018-06-03T02:56:33.334Z,26.01
2018-06-03T02:57:33.389Z,25.82
2018-06-03T02:59:26.382Z,25.82
2018-06-03T03:00:26.447Z,25.34
2018-06-03T03:02:19.451Z,25.53
2018-06-03T03:03:19.509Z,25.43
2018-06-03T03:05:12.510Z,25.62
2018-06-03T03:06:12.567Z,25.24
2018-06-03T03:08:05.558Z,25.34
2018-06-03T03:09:05.620Z,25.53
2018-06-03T03:10:58.621Z,25.53
2018-06-03T03:11:58.679Z,25.53
2018-06-03T03:13:52.183Z,25.15
2018-06-03T03:14:52.251Z,25.43
2018-06-03T03:16:45.242Z,25.34
2018-06-03T03:17:45.298Z,25.82
2018-06-03T03:19:38.292Z,25.34
2018-06-03T03:20:38.355Z,26.01
2018-06-03T03:22:31.360Z,25.92
2018-06-03T03:23:31.412Z,26.30
2018-06-03T03:25:24.416Z,26.10
2018-06-03T03:26:24.475Z,26.10
2018-06-03T03:28:17.466Z,26.01
2018-06-03T03:29:17.532Z,25.82
2018-06-03T03:31:10.531Z,26.01
2018-06-03T03:32:10.589Z,26.01
2018-06-03T03:34:03.587Z,25.92
2018-06-03T03:35:03.651Z,25.92
2018-06-03T03:36:56.689Z,26.20
2018-06-03T03:37:56.706Z,26.20
2018-06-03T03:39:49.700Z,25.92
2018-06-03T03:40:49.763Z,25.92
2018-06-03T03:42:42.764Z,26.59
2018-06-03T03:43:42.818Z,26.59
2018-06-03T03:45:35.821Z,26.20
2018-06-03T03:46:35.881Z,26.40
2018-06-03T03:48:29.377Z,26.01
2018-06-03T03:49:29.437Z,26.20
2018-06-03T03:51:22.436Z,26.49
2018-06-03T03:52:22.495Z,26.20
2018-06-03T03:54:15.489Z,26.01
2018-06-03T03:55:15.552Z,26.20
2018-06-03T03:57:08.558Z,26.49
2018-06-03T03:58:08.618Z,26.79
2018-06-03T04:00:01.608Z,26.59
2018-06-03T04:01:01.674Z,26.10
2018-06-03T04:02:54.718Z,26.50
2018-06-03T04:03:54.731Z,27.08
2018-06-03T04:05:47.734Z,26.79
2018-06-03T04:06:47.788Z,26.39
2018-06-03T04:08:40.786Z,26.60
2018-06-03T04:09:40.845Z,26.98
2018-06-03T04:11:33.843Z,27.47
2018-06-03T04:12:33.903Z,27.17
2018-06-03T04:14:26.893Z,27.37
2018-06-03T04:15:26.960Z,27.37
2018-06-03T04:17:19.958Z,27.66
2018-06-03T04:18:20.016Z,27.56
2018-06-03T04:20:13.008Z,27.66
2018-06-03T04:21:13.075Z,27.94
2018-06-03T04:23:06.074Z,27.75
2018-06-03T04:24:06.131Z,28.04
2018-06-03T04:25:59.135Z,28.04
2018-06-03T04:26:59.189Z,28.52
2018-06-03T04:28:52.192Z,28.04
2018-06-03T04:29:52.246Z,28.33
2018-06-03T04:31:45.252Z,28.52
2018-06-03T04:32:45.304Z,28.71
2018-06-03T04:34:38.295Z,28.42
2018-06-03T04:35:38.359Z,28.71
2018-06-03T04:37:31.360Z,29.00
2018-06-03T04:38:31.417Z,28.72
2018-06-03T04:40:24.409Z,29.00
2018-06-03T04:41:24.538Z,29.00
2018-06-03T04:43:17.476Z,28.92
2018-06-03T04:44:17.533Z,29.02
2018-06-03T04:46:11.032Z,29.79
2018-06-03T04:47:11.136Z,29.59
2018-06-03T04:49:04.099Z,29.88
2018-06-03T04:50:04.156Z,29.79
2018-06-03T04:51:57.179Z,29.69
2018-06-03T04:52:57.220Z,30.36
2018-06-03T04:54:50.213Z,30.55
2018-06-03T04:55:50.274Z,31.03
2018-06-03T04:57:43.275Z,29.69
2018-06-03T04:58:43.335Z,30.36
2018-06-03T05:00:36.833Z,30.65
2018-06-03T05:01:36.898Z,30.55
2018-06-03T05:03:29.901Z,30.57
2018-06-03T05:04:29.959Z,30.95
2018-06-03T05:06:22.948Z,30.84
2018-06-03T05:07:23.014Z,31.32
2018-06-03T05:09:16.019Z,31.99
2018-06-03T05:10:16.072Z,32.18
2018-06-03T05:12:09.062Z,31.62
2018-06-03T05:13:09.129Z,31.61
2018-06-03T05:15:02.129Z,31.72
2018-06-03T05:16:02.184Z,31.62
2018-06-03T05:17:55.186Z,32.20
2018-06-03T05:18:55.244Z,32.01
2018-06-03T05:20:48.233Z,32.30
2018-06-03T05:21:48.300Z,32.20
2018-06-03T05:23:41.300Z,32.49
2018-06-03T05:24:41.358Z,32.97
2018-06-03T05:26:34.350Z,32.97
2018-06-03T05:27:34.414Z,33.16
2018-06-03T05:29:27.417Z,32.68
2018-06-03T05:30:27.477Z,33.37
2018-06-03T05:32:20.468Z,33.37
2018-06-03T05:33:20.531Z,33.47
2018-06-03T05:35:13.532Z,34.62
2018-06-03T05:36:13.591Z,34.62
2018-06-03T05:38:07.100Z,34.43
2018-06-03T05:39:07.156Z,35.00
2018-06-03T05:41:00.148Z,33.95
2018-06-03T05:42:00.213Z,33.75
2018-06-03T05:43:53.214Z,35.87
2018-06-03T05:44:53.277Z,35.31
2018-06-03T05:46:46.264Z,35.31
2018-06-03T05:47:46.334Z,36.76
2018-06-03T05:49:39.337Z,38.79
2018-06-03T05:50:39.477Z,39.37
2018-06-03T05:52:32.398Z,40.26
2018-06-03T05:53:32.453Z,41.71
2018-06-03T05:55:25.488Z,44.23
2018-06-03T05:56:25.521Z,44.13
2018-06-03T05:58:18.522Z,43.15
2018-06-03T05:59:18.582Z,41.71
2018-06-03T06:01:11.577Z,41.32
2018-06-03T06:02:11.643Z,42.19
2018-06-03T06:04:04.645Z,41.51
2018-06-03T06:05:04.704Z,41.99
2018-06-03T06:06:57.701Z,42.47
2018-06-03T06:07:57.771Z,44.04
2018-06-03T06:09:50.768Z,43.92
2018-06-03T06:10:50.825Z,45.68
2018-06-03T06:12:43.825Z,46.45
2018-06-03T06:13:43.892Z,45.87
2018-06-03T06:15:36.892Z,45.97
2018-06-03T06:16:36.952Z,45.97
2018-06-03T06:18:30.465Z,45.48
2018-06-03T06:19:30.523Z,44.81
2018-06-03T06:21:23.532Z,45.48
2018-06-03T06:22:23.591Z,45.39
2018-06-03T06:24:16.602Z,44.81
2018-06-03T06:25:16.666Z,44.49
2018-06-03T06:27:09.657Z,45.46
2018-06-03T06:28:09.725Z,42.76
2018-06-03T06:30:02.726Z,46.42
2018-06-03T06:31:02.787Z,44.02
2018-06-03T06:32:55.789Z,43.55
2018-06-03T06:33:55.851Z,44.42
2018-06-03T06:35:48.845Z,46.06
2018-06-03T06:36:48.913Z,44.59
2018-06-03T06:38:41.916Z,45.46
2018-06-03T06:39:41.975Z,45.27
2018-06-03T06:41:35.010Z,46.64
2018-06-03T06:42:35.038Z,46.33
2018-06-03T06:44:28.040Z,44.31
2018-06-03T06:45:28.101Z,44.79
2018-06-03T06:47:21.105Z,44.02
2018-06-03T06:48:21.165Z,44.69
2018-06-03T06:50:14.161Z,47.49
2018-06-03T06:51:14.228Z,45.97
2018-06-03T06:53:07.231Z,49.82
2018-06-03T06:54:07.292Z,45.58
2018-06-03T06:56:00.287Z,48.86
2018-06-03T06:57:00.352Z,47.44
2018-06-03T06:58:53.359Z,50.40
2018-06-03T06:59:53.419Z,49.27
2018-06-03T07:01:46.415Z,50.23
2018-06-03T07:02:46.482Z,53.70
2018-06-03T07:04:39.483Z,63.85
2018-06-03T07:05:39.546Z,72.52
2018-06-03T07:07:32.546Z,83.07
2018-06-03T07:08:32.610Z,84.70
2018-06-03T07:10:25.614Z,79.66
2018-06-03T07:11:25.681Z,71.54
2018-06-03T07:13:18.693Z,59.69
2018-06-03T07:14:18.758Z,56.82
2018-06-03T07:16:11.775Z,56.50
2018-06-03T07:17:11.841Z,56.20
2018-06-03T07:19:05.364Z,56.41
2018-06-03T07:20:05.427Z,58.99
2018-06-03T07:21:58.446Z,67.44
2018-06-03T07:22:58.511Z,73.02
2018-06-03T07:24:51.518Z,74.21
2018-06-03T07:25:51.590Z,78.25
2018-06-03T07:27:44.601Z,79.18
2018-06-03T07:28:44.666Z,79.58
2018-06-03T07:30:37.672Z,81.04
2018-06-03T07:31:37.743Z,81.64
2018-06-03T07:33:30.752Z,81.56
2018-06-03T07:34:30.819Z,82.14
2018-06-03T07:36:23.828Z,81.71
2018-06-03T07:37:23.893Z,81.90
2018-06-03T07:39:16.903Z,81.77
2018-06-03T07:40:16.992Z,81.44
2018-06-03T07:42:09.969Z,79.85
2018-06-03T07:43:10.041Z,76.67
2018-06-03T07:45:03.051Z,74.18
2018-06-03T07:46:03.118Z,74.95
2018-06-03T07:47:56.124Z,74.27
2018-06-03T07:48:56.188Z,74.18
2018-06-03T07:50:49.207Z,75.53
2018-06-03T07:51:49.263Z,74.27
2018-06-03T07:53:42.266Z,74.27
2018-06-03T07:54:42.348Z,73.41
2018-06-03T07:56:35.333Z,73.02
2018-06-03T07:57:35.437Z,67.91
2018-06-03T07:59:28.413Z,67.68
2018-06-03T08:00:28.478Z,69.64
2018-06-03T08:02:21.481Z,71.86
2018-06-03T08:03:21.551Z,75.14
2018-06-03T08:05:14.559Z,75.57
2018-06-03T08:06:14.622Z,77.11
2018-06-03T08:08:07.635Z,75.57
2018-06-03T08:09:07.697Z,78.85
2018-06-03T08:11:00.700Z,75.76
2018-06-03T08:12:00.762Z,75.47
2018-06-03T08:13:53.773Z,77.01
2018-06-03T08:14:53.838Z,79.95
2018-06-03T08:16:46.835Z,77.53
2018-06-03T08:17:46.911Z,78.17
2018-06-03T08:19:39.900Z,78.75
2018-06-03T08:20:39.968Z,79.91
2018-06-03T08:22:32.974Z,78.75
2018-06-03T08:23:33.036Z,79.04
2018-06-03T08:25:26.039Z,74.37
2018-06-03T08:26:26.101Z,72.06
2018-06-03T08:28:19.106Z,69.93
2018-06-03T08:29:19.164Z,71.00
2018-06-03T08:31:12.166Z,70.64
2018-06-03T08:32:12.237Z,72.48
2018-06-03T08:34:05.239Z,77.11
2018-06-03T08:35:05.308Z,76.37
2018-06-03T08:36:58.299Z,80.76
2018-06-03T08:37:58.365Z,82.35
2018-06-03T08:39:51.377Z,81.57
2018-06-03T08:40:51.437Z,82.48
2018-06-03T08:42:44.488Z,84.45
2018-06-03T08:43:44.524Z,84.39
2018-06-03T08:45:37.528Z,79.08
2018-06-03T08:46:37.590Z,76.42
2018-06-03T08:48:30.614Z,74.05
2018-06-03T08:49:30.672Z,73.66
2018-06-03T08:51:23.680Z,68.45
2018-06-03T08:52:23.746Z,65.85
2018-06-03T08:54:16.760Z,62.18
2018-06-03T08:55:16.824Z,59.61
2018-06-03T08:57:09.836Z,54.96
2018-06-03T08:58:09.908Z,53.34
2018-06-03T09:00:02.928Z,59.98
2018-06-03T09:01:02.996Z,62.80
2018-06-03T09:02:56.006Z,63.32
2018-06-03T09:03:56.081Z,67.96
2018-06-03T09:05:49.099Z,63.97
2018-06-03T09:06:49.188Z,65.30
2018-06-03T09:08:42.222Z,65.40
2018-06-03T09:09:42.288Z,61.21
2018-06-03T09:11:35.320Z,63.29
2018-06-03T09:12:35.379Z,68.90
2018-06-03T09:14:29.913Z,64.91
2018-06-03T09:15:29.957Z,59.52
2018-06-03T09:17:22.976Z,58.25
2018-06-03T09:18:23.055Z,60.78
2018-06-03T09:20:16.076Z,59.00
2018-06-03T09:21:16.141Z,60.50
2018-06-03T09:23:09.162Z,63.68
2018-06-03T09:24:09.244Z,68.64
2018-06-03T09:26:02.268Z,63.45
2018-06-03T09:27:02.329Z,62.32
2018-06-03T09:28:55.355Z,60.11
2018-06-03T09:29:55.420Z,62.16
2018-06-03T09:31:48.428Z,61.83
2018-06-03T09:32:48.496Z,60.27
2018-06-03T09:34:41.561Z,58.29
2018-06-03T09:35:41.580Z,58.42
2018-06-03T09:37:34.732Z,62.99
2018-06-03T09:38:34.689Z,57.64
2018-06-03T09:40:27.718Z,57.25
2018-06-03T09:41:27.760Z,58.51
2018-06-03T09:43:20.765Z,61.70
2018-06-03T09:44:20.886Z,58.97
2018-06-03T09:46:13.859Z,61.87
2018-06-03T09:47:13.924Z,59.63
2018-06-03T09:49:06.945Z,61.44
2018-06-03T09:50:07.013Z,62.97
2018-06-03T09:52:00.028Z,63.55
2018-06-03T09:53:00.106Z,62.71
2018-06-03T09:54:53.118Z,62.81
2018-06-03T09:55:53.185Z,64.46
2018-06-03T09:57:46.225Z,63.59
2018-06-03T09:58:46.266Z,64.17
2018-06-03T10:00:39.282Z,60.89
2018-06-03T10:01:39.347Z,65.08
2018-06-03T10:03:32.356Z,62.23
2018-06-03T10:04:32.426Z,61.67
2018-06-03T10:06:25.446Z,61.08
2018-06-03T10:07:25.513Z,61.64
2018-06-03T10:09:18.525Z,62.71
2018-06-03T10:10:18.673Z,66.11
2018-06-03T10:12:11.601Z,62.90
2018-06-03T10:13:11.671Z,63.49
2018-06-03T10:15:04.687Z,63.49
2018-06-03T10:16:04.762Z,64.46
2018-06-03T10:17:58.272Z,68.48
2018-06-03T10:18:58.341Z,64.81
2018-06-03T10:20:51.357Z,64.62
2018-06-03T10:21:51.424Z,62.35
2018-06-03T10:23:44.435Z,65.14
2018-06-03T10:24:44.507Z,65.14
2018-06-03T10:26:37.529Z,66.69
2018-06-03T10:27:37.588Z,68.12
2018-06-03T10:29:30.600Z,67.76
2018-06-03T10:30:30.667Z,66.31
2018-06-03T10:32:23.677Z,66.79
2018-06-03T10:33:23.747Z,65.72
2018-06-03T10:35:16.759Z,67.31
2018-06-03T10:36:16.825Z,68.54
2018-06-03T10:38:09.832Z,71.61
2018-06-03T10:39:09.904Z,74.29
2018-06-03T10:41:02.936Z,74.93
2018-06-03T10:42:02.986Z,76.29
2018-06-03T10:43:55.991Z,73.38
2018-06-03T10:44:56.063Z,75.23
2018-06-03T10:46:49.072Z,75.81
2018-06-03T10:47:49.136Z,73.86
2018-06-03T10:49:42.151Z,73.90
2018-06-03T10:50:42.214Z,72.25
2018-06-03T10:52:35.226Z,75.94
2018-06-03T10:53:35.300Z,71.77
2018-06-03T10:55:28.312Z,72.16
2018-06-03T10:56:28.379Z,74.10
2018-06-03T10:58:21.383Z,75.51
2018-06-03T10:59:21.452Z,77.16
2018-06-03T11:01:14.464Z,77.26
2018-06-03T11:02:14.533Z,76.10
2018-06-03T11:04:07.536Z,76.87
2018-06-03T11:05:07.606Z,78.81
2018-06-03T11:07:00.623Z,74.64
2018-06-03T11:08:00.793Z,75.03
2018-06-03T11:09:53.705Z,79.39
2018-06-03T11:10:53.768Z,77.11
2018-06-03T11:12:46.776Z,73.80
2018-06-03T11:13:46.841Z,74.10
2018-06-03T11:15:39.852Z,75.55
2018-06-03T11:16:39.965Z,76.14
2018-06-03T11:18:32.915Z,78.71
2018-06-03T11:19:32.984Z,73.71
2018-06-03T11:21:25.992Z,72.64
2018-06-03T11:22:26.056Z,75.68
2018-06-03T11:24:19.059Z,76.65
2018-06-03T11:25:19.129Z,74.91
2018-06-03T11:27:12.143Z,72.83
2018-06-03T11:28:12.205Z,72.83
2018-06-03T11:30:05.212Z,78.46
2018-06-03T11:31:05.280Z,77.78
2018-06-03T11:32:58.284Z,73.32
2018-06-03T11:33:58.351Z,72.83
2018-06-03T11:35:51.360Z,76.10
2018-06-03T11:36:51.427Z,73.38
2018-06-03T11:38:44.433Z,75.23
2018-06-03T11:39:44.496Z,73.80
2018-06-03T11:41:37.509Z,74.10
2018-06-03T11:42:37.570Z,73.13
2018-06-03T11:44:30.573Z,71.32
2018-06-03T11:45:30.645Z,73.26
2018-06-03T11:47:23.658Z,72.97
2018-06-03T11:48:23.725Z,70.83
2018-06-03T11:50:16.729Z,72.16
2018-06-03T11:51:16.790Z,74.10
2018-06-03T11:53:09.821Z,69.09
2018-06-03T11:54:09.862Z,70.25
2018-06-03T11:56:02.871Z,69.67
2018-06-03T11:57:02.943Z,71.80
2018-06-03T11:58:55.942Z,78.66
2018-06-03T11:59:56.014Z,76.95
2018-06-03T12:01:49.025Z,69.86
2018-06-03T12:02:49.087Z,69.48
2018-06-03T12:04:42.097Z,64.82
2018-06-03T12:05:42.166Z,62.10
2018-06-03T12:07:35.174Z,62.95
2018-06-03T12:08:35.239Z,64.43
2018-06-03T12:10:28.248Z,64.82
2018-06-03T12:11:28.315Z,65.17
2018-06-03T12:13:21.319Z,67.18
2018-06-03T12:14:21.389Z,67.60
2018-06-03T12:16:14.396Z,66.24
2018-06-03T12:17:14.461Z,65.47
2018-06-03T12:19:07.460Z,74.49
2018-06-03T12:20:07.530Z,68.86
2018-06-03T12:22:00.547Z,71.09
2018-06-03T12:23:00.612Z,67.31
2018-06-03T12:24:53.615Z,66.24
2018-06-03T12:25:53.683Z,66.44
2018-06-03T12:27:46.695Z,68.18
2018-06-03T12:28:46.753Z,66.95
2018-06-03T12:30:39.768Z,65.98
2018-06-03T12:31:39.831Z,66.60
2018-06-03T12:33:32.837Z,65.33
2018-06-03T12:34:32.904Z,66.11
2018-06-03T12:36:25.914Z,66.76
2018-06-03T12:37:25.982Z,65.79
2018-06-03T12:39:18.981Z,67.21
2018-06-03T12:40:19.051Z,67.60
2018-06-03T12:42:12.059Z,67.47
2018-06-03T12:43:12.124Z,67.85
2018-06-03T12:45:05.125Z,67.69
2018-06-03T12:46:05.197Z,68.86
2018-06-03T12:47:58.205Z,71.90
2018-06-03T12:48:58.270Z,69.09
2018-06-03T12:50:51.315Z,68.12
2018-06-03T12:51:51.343Z,68.51
2018-06-03T12:53:44.342Z,68.15
2018-06-03T12:54:44.413Z,69.15
2018-06-03T12:56:37.422Z,64.11
2018-06-03T12:57:37.488Z,68.48
2018-06-03T12:59:30.502Z,64.98
2018-06-03T13:00:30.560Z,69.12
2018-06-03T13:02:23.571Z,75.88
2018-06-03T13:03:23.635Z,76.46
2018-06-03T13:05:16.643Z,78.02
2018-06-03T13:06:16.708Z,77.92
2018-06-03T13:08:09.715Z,76.27
2018-06-03T13:09:09.785Z,76.46
2018-06-03T13:11:02.793Z,77.78
2018-06-03T13:12:02.877Z,76.91
2018-06-03T13:13:55.863Z,77.14
2018-06-03T13:14:55.936Z,74.00
2018-06-03T13:16:48.944Z,74.77
2018-06-03T13:17:49.009Z,75.65
2018-06-03T13:19:42.010Z,77.11
2018-06-03T13:20:42.079Z,77.98
2018-06-03T13:22:35.089Z,77.39
2018-06-03T13:23:35.149Z,77.98
2018-06-03T13:25:28.157Z,77.59
2018-06-03T13:26:28.227Z,77.78
2018-06-03T13:28:21.239Z,78.61
2018-06-03T13:29:21.300Z,79.39
2018-06-03T13:31:14.314Z,79.88
2018-06-03T13:32:14.387Z,79.10
2018-06-03T13:34:07.493Z,79.04
2018-06-03T13:35:07.457Z,78.07
2018-06-03T13:37:00.463Z,77.78
2018-06-03T13:38:00.527Z,77.94
2018-06-03T13:39:53.530Z,79.20
2018-06-03T13:40:53.598Z,79.78
2018-06-03T13:42:46.660Z,79.39
2018-06-03T13:43:46.671Z,79.58
2018-06-03T13:45:39.676Z,79.88
2018-06-03T13:46:39.745Z,80.07
2018-06-03T13:48:32.762Z,79.49
2018-06-03T13:49:32.829Z,79.78
2018-06-03T13:51:25.837Z,79.58
2018-06-03T13:52:25.903Z,79.30
2018-06-03T13:54:18.907Z,80.17
2018-06-03T13:55:18.975Z,79.78
2018-06-03T13:57:11.984Z,78.61
2018-06-03T13:58:12.048Z,79.30
2018-06-03T14:00:05.056Z,79.10
2018-06-03T14:01:05.137Z,79.88
2018-06-03T14:02:58.135Z,79.53
2018-06-03T14:03:58.199Z,79.53
2018-06-03T14:05:51.200Z,79.30
2018-06-03T14:06:51.269Z,79.04
2018-06-03T14:08:44.277Z,78.27
2018-06-03T14:09:44.342Z,78.36
2018-06-03T14:11:37.350Z,78.66
2018-06-03T14:12:37.414Z,78.50
2018-06-03T14:14:30.415Z,78.89
2018-06-03T14:15:30.487Z,77.43
2018-06-03T14:17:23.495Z,75.10
2018-06-03T14:18:23.562Z,73.26
2018-06-03T14:20:16.568Z,74.27
2018-06-03T14:21:16.640Z,73.55
2018-06-03T14:23:09.647Z,73.84
2018-06-03T14:24:09.713Z,73.36
2018-06-03T14:26:02.717Z,73.36
2018-06-03T14:27:02.788Z,74.23
2018-06-03T14:28:55.798Z,75.01
2018-06-03T14:29:55.862Z,75.88
2018-06-03T14:31:48.880Z,74.52
2018-06-03T14:32:48.936Z,73.46
2018-06-03T14:34:41.944Z,76.04
2018-06-03T14:35:42.013Z,77.20
2018-06-03T14:37:35.053Z,77.11
2018-06-03T14:38:35.089Z,76.91
2018-06-03T14:40:28.091Z,75.65
2018-06-03T14:41:28.157Z,74.77
2018-06-03T14:43:21.174Z,75.36
2018-06-03T14:44:21.242Z,75.45
2018-06-03T14:46:14.245Z,75.01
2018-06-03T14:47:14.309Z,75.74
2018-06-03T14:49:07.317Z,77.20
2018-06-03T14:50:07.386Z,77.88
2018-06-03T14:52:00.389Z,79.72
2018-06-03T14:53:00.454Z,78.17
2018-06-03T14:54:53.459Z,80.05
2018-06-03T14:55:53.528Z,80.25
2018-06-03T14:57:46.540Z,79.08
2018-06-03T14:58:46.553Z,78.66
2018-06-03T15:00:39.567Z,79.24
2018-06-03T15:01:39.631Z,78.46
2018-06-03T15:03:32.642Z,79.68
2018-06-03T15:04:32.705Z,78.33
2018-06-03T15:06:25.713Z,78.33
2018-06-03T15:07:25.777Z,78.42
2018-06-03T15:09:18.787Z,79.74
2018-06-03T15:10:18.847Z,80.32
2018-06-03T15:12:11.861Z,80.90
2018-06-03T15:13:11.926Z,80.62
2018-06-03T15:15:04.925Z,81.00
2018-06-03T15:16:04.996Z,80.52
2018-06-03T15:17:58.516Z,80.80
2018-06-03T15:18:58.582Z,81.48
2018-06-03T15:20:51.596Z,81.68
2018-06-03T15:21:51.667Z,82.45
2018-06-03T15:23:45.194Z,81.97
2018-06-03T15:24:45.259Z,81.97
2018-06-03T15:26:38.265Z,81.73
2018-06-03T15:27:38.338Z,81.54
2018-06-03T15:29:31.346Z,81.93
2018-06-03T15:30:31.432Z,81.64
2018-06-03T15:32:24.425Z,82.22
2018-06-03T15:33:24.487Z,81.64
2018-06-03T15:35:17.490Z,81.45
2018-06-03T15:36:17.560Z,82.41
2018-06-03T15:38:10.574Z,82.22
2018-06-03T15:39:10.637Z,81.54
2018-06-03T15:41:03.641Z,79.60
2018-06-03T15:42:03.712Z,79.70
2018-06-03T15:43:56.722Z,81.25
2018-06-03T15:44:56.786Z,81.64
2018-06-03T15:46:49.785Z,82.32
2018-06-03T15:47:49.853Z,82.60
2018-06-03T15:49:42.863Z,82.80
2018-06-03T15:50:42.931Z,83.18
2018-06-03T15:52:35.935Z,82.22
2018-06-03T15:53:36.000Z,81.30
2018-06-03T15:55:29.007Z,82.28
2018-06-03T15:56:29.071Z,82.37
2018-06-03T15:58:22.081Z,82.86
2018-06-03T15:59:22.143Z,82.47
2018-06-03T16:01:15.143Z,82.08
2018-06-03T16:02:15.212Z,82.76
2018-06-03T16:04:08.225Z,83.34
2018-06-03T16:05:08.291Z,83.44
2018-06-03T16:07:01.294Z,82.37
2018-06-03T16:08:01.401Z,82.18
2018-06-03T16:09:54.373Z,82.95
2018-06-03T16:10:54.436Z,83.63
2018-06-03T16:12:47.442Z,83.05
2018-06-03T16:13:47.508Z,82.95
2018-06-03T16:15:40.505Z,83.53
2018-06-03T16:16:40.579Z,81.79
2018-06-03T16:18:33.582Z,83.05
2018-06-03T16:19:33.649Z,83.63
2018-06-03T16:21:26.656Z,83.25
2018-06-03T16:22:26.718Z,83.63
2018-06-03T16:24:19.734Z,82.76
2018-06-03T16:25:19.788Z,83.25
2018-06-03T16:27:12.789Z,82.86
2018-06-03T16:28:12.866Z,82.86
2018-06-03T16:30:05.856Z,82.86
2018-06-03T16:31:05.916Z,82.91
2018-06-03T16:32:58.919Z,82.33
2018-06-03T16:33:58.982Z,82.91
2018-06-03T16:35:51.978Z,83.01
2018-06-03T16:36:52.054Z,83.78
2018-06-03T16:38:45.049Z,83.01
2018-06-03T16:39:45.111Z,82.72
2018-06-03T16:41:38.116Z,82.81
2018-06-03T16:42:38.180Z,82.81
2018-06-03T16:44:31.189Z,82.91
2018-06-03T16:45:31.257Z,83.01
2018-06-03T16:47:24.277Z,83.01
2018-06-03T16:48:24.318Z,82.91
2018-06-03T16:50:17.332Z,83.01
2018-06-03T16:51:17.398Z,82.53
2018-06-03T16:53:10.401Z,82.81
2018-06-03T16:54:10.460Z,82.33
2018-06-03T16:56:03.462Z,82.14
2018-06-03T16:57:03.533Z,81.65
2018-06-03T16:58:56.535Z,81.65
2018-06-03T16:59:56.597Z,81.65
2018-06-03T17:01:49.616Z,81.27
2018-06-03T17:02:49.658Z,81.65
2018-06-03T17:04:42.677Z,82.14
2018-06-03T17:05:42.748Z,82.04
2018-06-03T17:07:35.745Z,82.43
2018-06-03T17:08:35.810Z,82.53
2018-06-03T17:10:28.817Z,82.33
2018-06-03T17:11:30.006Z,81.65
2018-06-03T17:13:21.945Z,81.27
2018-06-03T17:14:21.947Z,80.49
2018-06-03T17:16:14.945Z,81.17
2018-06-03T17:17:15.014Z,81.46
2018-06-03T17:19:08.069Z,82.23
2018-06-03T17:20:08.078Z,82.14
2018-06-03T17:22:01.094Z,82.33
2018-06-03T17:23:01.159Z,82.81
2018-06-03T17:24:54.164Z,81.95
2018-06-03T17:25:54.226Z,82.91
2018-06-03T17:27:47.235Z,83.30
2018-06-03T17:28:47.301Z,83.69
2018-06-03T17:30:40.307Z,83.69
2018-06-03T17:31:40.367Z,83.45
2018-06-03T17:33:33.372Z,83.30
2018-06-03T17:34:33.435Z,83.01
2018-06-03T17:36:26.435Z,83.20
2018-06-03T17:37:26.506Z,83.20
2018-06-03T17:39:19.506Z,83.55
2018-06-03T17:40:19.573Z,83.36
2018-06-03T17:42:12.572Z,83.36
2018-06-03T17:43:12.641Z,83.74
2018-06-03T17:45:05.648Z,83.84
2018-06-03T17:46:05.709Z,83.84
2018-06-03T17:47:58.714Z,83.64
2018-06-03T17:48:58.783Z,83.84
2018-06-03T17:50:51.785Z,83.45
2018-06-03T17:51:51.849Z,83.55
2018-06-03T17:53:44.856Z,83.45
2018-06-03T17:54:44.919Z,84.03
2018-06-03T17:56:37.934Z,83.64
2018-06-03T17:57:37.994Z,83.64
2018-06-03T17:59:31.516Z,83.45
2018-06-03T18:00:31.567Z,83.45
2018-06-03T18:02:24.575Z,83.36
2018-06-03T18:03:24.641Z,83.80
2018-06-03T18:05:17.644Z,83.70
2018-06-03T18:06:17.707Z,83.41
2018-06-03T18:08:10.711Z,83.31
2018-06-03T18:09:10.777Z,83.51
2018-06-03T18:11:03.783Z,83.70
2018-06-03T18:12:03.840Z,83.80
2018-06-03T18:13:56.848Z,83.12
2018-06-03T18:14:56.912Z,83.41
2018-06-03T18:16:49.923Z,83.61
2018-06-03T18:17:49.977Z,83.22
2018-06-03T18:19:42.980Z,83.03
2018-06-03T18:20:43.042Z,82.64
2018-06-03T18:22:36.041Z,83.31
2018-06-03T18:23:36.108Z,82.69
2018-06-03T18:25:29.113Z,83.56
2018-06-03T18:26:29.178Z,83.66
2018-06-03T18:28:22.180Z,82.79
2018-06-03T18:29:22.250Z,82.98
2018-06-03T18:31:15.256Z,82.60
2018-06-03T18:32:15.318Z,82.89
2018-06-03T18:34:08.319Z,82.40